sensor_id;sensor_type;location;lat;lon;timestamp;P1;durP1;ratioP1;P2;durP2;ratioP2
31390;SDS011;18022;45.492;11.548;2023-09-19T00:01:20;10.35;;;3.08;;
31390;SDS011;18022;45.492;11.548;2023-09-19T00:06:13;11.63;;;3.50;;
31390;SDS011;18022;45.492;11.548;2023-09-19T00:08:39;14.32;;;3.85;;
31390;SDS011;18022;45.492;11.548;2023-09-19T00:11:05;9.52;;;3.05;;
31390;SDS011;18022;45.492;11.548;2023-09-19T00:13:31;11.63;;;3.15;;
31390;SDS011;18022;45.492;11.548;2023-09-19T00:15:57;11.77;;;3.22;;
31390;SDS011;18022;45.492;11.548;2023-09-19T00:18:24;10.90;;;3.35;;
31390;SDS011;18022;45.492;11.548;2023-09-19T00:20:56;11.52;;;3.40;;
31390;SDS011;18022;45.492;11.548;2023-09-19T00:23:22;10.93;;;3.08;;
31390;SDS011;18022;45.492;11.548;2023-09-19T00:25:49;11.13;;;3.63;;
31390;SDS011;18022;45.492;11.548;2023-09-19T00:28:16;7.83;;;2.97;;
31390;SDS011;18022;45.492;11.548;2023-09-19T00:30:43;13.75;;;3.08;;
31390;SDS011;18022;45.492;11.548;2023-09-19T00:33:10;9.87;;;2.97;;
31390;SDS011;18022;45.492;11.548;2023-09-19T00:35:46;9.55;;;3.10;;
31390;SDS011;18022;45.492;11.548;2023-09-19T00:38:19;12.75;;;4.13;;
31390;SDS011;18022;45.492;11.548;2023-09-19T00:40:47;9.82;;;3.35;;
31390;SDS011;18022;45.492;11.548;2023-09-19T00:43:14;11.88;;;3.35;;
31390;SDS011;18022;45.492;11.548;2023-09-19T00:45:43;13.10;;;3.30;;
31390;SDS011;18022;45.492;11.548;2023-09-19T00:48:10;11.20;;;3.33;;
31390;SDS011;18022;45.492;11.548;2023-09-19T00:50:36;14.98;;;3.22;;
31390;SDS011;18022;45.492;11.548;2023-09-19T00:53:06;18.52;;;3.15;;
31390;SDS011;18022;45.492;11.548;2023-09-19T00:55:33;9.95;;;2.80;;
31390;SDS011;18022;45.492;11.548;2023-09-19T00:57:59;9.68;;;3.17;;
31390;SDS011;18022;45.492;11.548;2023-09-19T01:00:25;14.63;;;3.60;;
31390;SDS011;18022;45.492;11.548;2023-09-19T01:02:51;9.95;;;3.03;;
31390;SDS011;18022;45.492;11.548;2023-09-19T01:05:17;10.27;;;3.15;;
31390;SDS011;18022;45.492;11.548;2023-09-19T01:07:43;10.90;;;2.92;;
31390;SDS011;18022;45.492;11.548;2023-09-19T01:10:14;13.15;;;3.42;;
31390;SDS011;18022;45.492;11.548;2023-09-19T01:12:47;9.63;;;3.33;;
31390;SDS011;18022;45.492;11.548;2023-09-19T01:29:39;8.73;;;2.80;;
31390;SDS011;18022;45.492;11.548;2023-09-19T01:32:05;13.05;;;3.28;;
31390;SDS011;18022;45.492;11.548;2023-09-19T01:34:54;12.82;;;2.78;;
31390;SDS011;18022;45.492;11.548;2023-09-19T01:37:29;8.63;;;2.70;;
31390;SDS011;18022;45.492;11.548;2023-09-19T01:40:03;6.50;;;2.67;;
31390;SDS011;18022;45.492;11.548;2023-09-19T01:51:03;14.55;;;3.22;;
31390;SDS011;18022;45.492;11.548;2023-09-19T01:53:45;7.90;;;2.70;;
31390;SDS011;18022;45.492;11.548;2023-09-19T01:56:20;9.30;;;3.53;;
31390;SDS011;18022;45.492;11.548;2023-09-19T01:58:51;16.83;;;3.30;;
31390;SDS011;18022;45.492;11.548;2023-09-19T02:01:22;9.52;;;2.85;;
31390;SDS011;18022;45.492;11.548;2023-09-19T02:03:49;11.10;;;3.30;;
31390;SDS011;18022;45.492;11.548;2023-09-19T02:06:15;13.60;;;3.10;;
31390;SDS011;18022;45.492;11.548;2023-09-19T02:08:43;8.10;;;3.05;;
31390;SDS011;18022;45.492;11.548;2023-09-19T02:11:10;14.18;;;3.05;;
31390;SDS011;18022;45.492;11.548;2023-09-19T02:13:39;9.48;;;2.60;;
31390;SDS011;18022;45.492;11.548;2023-09-19T02:16:05;13.18;;;3.13;;
31390;SDS011;18022;45.492;11.548;2023-09-19T02:18:32;6.63;;;2.85;;
31390;SDS011;18022;45.492;11.548;2023-09-19T02:21:00;12.57;;;3.65;;
31390;SDS011;18022;45.492;11.548;2023-09-19T02:23:26;14.18;;;3.40;;
31390;SDS011;18022;45.492;11.548;2023-09-19T02:25:55;12.98;;;2.97;;
31390;SDS011;18022;45.492;11.548;2023-09-19T02:28:28;9.57;;;2.80;;
31390;SDS011;18022;45.492;11.548;2023-09-19T02:30:57;12.23;;;2.97;;
31390;SDS011;18022;45.492;11.548;2023-09-19T02:33:24;15.82;;;3.67;;
31390;SDS011;18022;45.492;11.548;2023-09-19T02:35:54;10.63;;;3.50;;
31390;SDS011;18022;45.492;11.548;2023-09-19T02:38:22;17.98;;;4.03;;
31390;SDS011;18022;45.492;11.548;2023-09-19T02:40:50;9.80;;;4.07;;
31390;SDS011;18022;45.492;11.548;2023-09-19T02:43:16;12.25;;;3.97;;
31390;SDS011;18022;45.492;11.548;2023-09-19T02:45:42;8.90;;;2.72;;
31390;SDS011;18022;45.492;11.548;2023-09-19T02:48:08;8.52;;;3.00;;
31390;SDS011;18022;45.492;11.548;2023-09-19T02:50:34;8.43;;;2.70;;
31390;SDS011;18022;45.492;11.548;2023-09-19T02:52:59;15.48;;;3.10;;
31390;SDS011;18022;45.492;11.548;2023-09-19T02:55:25;11.15;;;3.00;;
31390;SDS011;18022;45.492;11.548;2023-09-19T02:57:52;10.18;;;3.08;;
31390;SDS011;18022;45.492;11.548;2023-09-19T03:00:21;11.85;;;2.80;;
31390;SDS011;18022;45.492;11.548;2023-09-19T03:02:52;11.23;;;3.13;;
31390;SDS011;18022;45.492;11.548;2023-09-19T03:05:19;9.65;;;2.78;;
31390;SDS011;18022;45.492;11.548;2023-09-19T03:07:46;12.20;;;3.33;;
31390;SDS011;18022;45.492;11.548;2023-09-19T03:10:15;11.73;;;3.15;;
31390;SDS011;18022;45.492;11.548;2023-09-19T03:12:41;15.52;;;3.05;;
31390;SDS011;18022;45.492;11.548;2023-09-19T03:15:07;10.80;;;3.15;;
31390;SDS011;18022;45.492;11.548;2023-09-19T03:17:33;10.57;;;3.00;;
31390;SDS011;18022;45.492;11.548;2023-09-19T03:20:00;13.30;;;3.20;;
31390;SDS011;18022;45.492;11.548;2023-09-19T03:22:28;10.73;;;3.40;;
31390;SDS011;18022;45.492;11.548;2023-09-19T03:24:54;14.23;;;3.03;;
31390;SDS011;18022;45.492;11.548;2023-09-19T03:27:20;11.95;;;3.28;;
31390;SDS011;18022;45.492;11.548;2023-09-19T03:29:46;9.65;;;3.80;;
31390;SDS011;18022;45.492;11.548;2023-09-19T03:32:12;9.40;;;3.15;;
31390;SDS011;18022;45.492;11.548;2023-09-19T03:34:38;8.18;;;3.70;;
31390;SDS011;18022;45.492;11.548;2023-09-19T03:37:08;12.68;;;3.25;;
31390;SDS011;18022;45.492;11.548;2023-09-19T03:39:34;7.47;;;2.97;;
31390;SDS011;18022;45.492;11.548;2023-09-19T03:42:00;10.82;;;2.83;;
31390;SDS011;18022;45.492;11.548;2023-09-19T03:44:26;14.07;;;3.22;;
31390;SDS011;18022;45.492;11.548;2023-09-19T03:46:52;11.40;;;3.20;;
31390;SDS011;18022;45.492;11.548;2023-09-19T03:49:17;13.48;;;3.70;;
31390;SDS011;18022;45.492;11.548;2023-09-19T03:51:44;7.07;;;3.25;;
31390;SDS011;18022;45.492;11.548;2023-09-19T03:54:09;17.40;;;3.40;;
31390;SDS011;18022;45.492;11.548;2023-09-19T03:56:35;12.82;;;3.28;;
31390;SDS011;18022;45.492;11.548;2023-09-19T03:59:01;13.10;;;3.50;;
31390;SDS011;18022;45.492;11.548;2023-09-19T04:01:26;8.95;;;3.25;;
31390;SDS011;18022;45.492;11.548;2023-09-19T04:03:53;14.47;;;3.17;;
31390;SDS011;18022;45.492;11.548;2023-09-19T04:06:19;18.23;;;4.07;;
31390;SDS011;18022;45.492;11.548;2023-09-19T04:08:44;11.23;;;3.17;;
31390;SDS011;18022;45.492;11.548;2023-09-19T04:11:12;11.40;;;3.47;;
31390;SDS011;18022;45.492;11.548;2023-09-19T04:13:38;12.60;;;3.92;;
31390;SDS011;18022;45.492;11.548;2023-09-19T04:16:03;18.23;;;4.25;;
31390;SDS011;18022;45.492;11.548;2023-09-19T04:18:29;7.20;;;3.13;;
31390;SDS011;18022;45.492;11.548;2023-09-19T04:21:02;14.18;;;4.05;;
31390;SDS011;18022;45.492;11.548;2023-09-19T04:23:29;17.60;;;4.22;;
31390;SDS011;18022;45.492;11.548;2023-09-19T04:25:55;14.82;;;3.97;;
31390;SDS011;18022;45.492;11.548;2023-09-19T04:28:21;15.07;;;4.38;;
31390;SDS011;18022;45.492;11.548;2023-09-19T04:30:48;16.80;;;4.53;;
31390;SDS011;18022;45.492;11.548;2023-09-19T04:33:14;10.63;;;4.47;;
31390;SDS011;18022;45.492;11.548;2023-09-19T04:35:40;14.55;;;4.78;;
31390;SDS011;18022;45.492;11.548;2023-09-19T04:38:07;16.70;;;4.22;;
31390;SDS011;18022;45.492;11.548;2023-09-19T04:40:33;8.57;;;4.03;;
31390;SDS011;18022;45.492;11.548;2023-09-19T04:42:59;10.63;;;3.63;;
31390;SDS011;18022;45.492;11.548;2023-09-19T04:45:26;11.35;;;3.42;;
31390;SDS011;18022;45.492;11.548;2023-09-19T04:47:52;14.02;;;4.05;;
31390;SDS011;18022;45.492;11.548;2023-09-19T04:50:18;11.63;;;4.07;;
31390;SDS011;18022;45.492;11.548;2023-09-19T04:52:48;12.80;;;4.00;;
31390;SDS011;18022;45.492;11.548;2023-09-19T04:55:16;13.40;;;6.50;;
31390;SDS011;18022;45.492;11.548;2023-09-19T04:57:49;17.13;;;8.38;;
31390;SDS011;18022;45.492;11.548;2023-09-19T05:00:19;19.35;;;8.80;;
31390;SDS011;18022;45.492;11.548;2023-09-19T05:02:51;17.85;;;8.85;;
31390;SDS011;18022;45.492;11.548;2023-09-19T05:05:18;16.73;;;9.57;;
31390;SDS011;18022;45.492;11.548;2023-09-19T05:07:44;21.55;;;9.80;;
31390;SDS011;18022;45.492;11.548;2023-09-19T05:10:11;23.17;;;10.05;;
31390;SDS011;18022;45.492;11.548;2023-09-19T05:12:37;14.38;;;8.57;;
31390;SDS011;18022;45.492;11.548;2023-09-19T05:15:04;14.63;;;9.32;;
31390;SDS011;18022;45.492;11.548;2023-09-19T05:17:32;22.75;;;9.20;;
31390;SDS011;18022;45.492;11.548;2023-09-19T05:19:58;17.60;;;9.10;;
31390;SDS011;18022;45.492;11.548;2023-09-19T05:22:31;16.92;;;9.40;;
31390;SDS011;18022;45.492;11.548;2023-09-19T05:24:59;15.20;;;9.15;;
31390;SDS011;18022;45.492;11.548;2023-09-19T05:27:25;17.90;;;9.55;;
31390;SDS011;18022;45.492;11.548;2023-09-19T05:29:51;15.73;;;9.20;;
31390;SDS011;18022;45.492;11.548;2023-09-19T05:32:18;17.38;;;8.75;;
31390;SDS011;18022;45.492;11.548;2023-09-19T05:34:45;15.00;;;8.55;;
31390;SDS011;18022;45.492;11.548;2023-09-19T05:37:12;15.88;;;9.05;;
31390;SDS011;18022;45.492;11.548;2023-09-19T05:39:41;15.13;;;8.18;;
31390;SDS011;18022;45.492;11.548;2023-09-19T05:42:07;20.90;;;8.15;;
31390;SDS011;18022;45.492;11.548;2023-09-19T05:44:33;26.33;;;8.65;;
31390;SDS011;18022;45.492;11.548;2023-09-19T05:46:59;14.65;;;7.47;;
31390;SDS011;18022;45.492;11.548;2023-09-19T05:49:25;15.52;;;8.55;;
31390;SDS011;18022;45.492;11.548;2023-09-19T05:51:50;18.85;;;9.10;;
31390;SDS011;18022;45.492;11.548;2023-09-19T05:54:19;19.60;;;8.15;;
31390;SDS011;18022;45.492;11.548;2023-09-19T05:56:45;16.00;;;7.65;;
31390;SDS011;18022;45.492;11.548;2023-09-19T05:59:14;18.85;;;7.82;;
31390;SDS011;18022;45.492;11.548;2023-09-19T06:01:45;20.65;;;8.05;;
31390;SDS011;18022;45.492;11.548;2023-09-19T06:04:12;16.75;;;7.50;;
31390;SDS011;18022;45.492;11.548;2023-09-19T06:06:38;13.95;;;6.93;;
31390;SDS011;18022;45.492;11.548;2023-09-19T06:09:05;15.40;;;7.73;;
31390;SDS011;18022;45.492;11.548;2023-09-19T06:11:33;12.00;;;7.22;;
31390;SDS011;18022;45.492;11.548;2023-09-19T06:14:02;18.70;;;7.18;;
31390;SDS011;18022;45.492;11.548;2023-09-19T06:16:31;14.55;;;6.95;;
31390;SDS011;18022;45.492;11.548;2023-09-19T06:18:59;20.67;;;7.72;;
31390;SDS011;18022;45.492;11.548;2023-09-19T06:21:26;13.85;;;7.00;;
31390;SDS011;18022;45.492;11.548;2023-09-19T06:24:00;13.25;;;7.50;;
31390;SDS011;18022;45.492;11.548;2023-09-19T06:26:26;17.25;;;6.90;;
31390;SDS011;18022;45.492;11.548;2023-09-19T06:28:55;16.30;;;7.57;;
31390;SDS011;18022;45.492;11.548;2023-09-19T06:31:22;13.13;;;5.38;;
31390;SDS011;18022;45.492;11.548;2023-09-19T06:33:51;8.93;;;4.90;;
31390;SDS011;18022;45.492;11.548;2023-09-19T06:36:17;10.48;;;4.63;;
31390;SDS011;18022;45.492;11.548;2023-09-19T06:38:44;10.15;;;4.82;;
31390;SDS011;18022;45.492;11.548;2023-09-19T06:41:10;14.93;;;6.65;;
31390;SDS011;18022;45.492;11.548;2023-09-19T06:43:36;17.35;;;6.95;;
31390;SDS011;18022;45.492;11.548;2023-09-19T06:46:02;14.05;;;6.80;;
31390;SDS011;18022;45.492;11.548;2023-09-19T06:48:29;9.93;;;6.72;;
31390;SDS011;18022;45.492;11.548;2023-09-19T06:50:57;17.27;;;7.63;;
31390;SDS011;18022;45.492;11.548;2023-09-19T06:53:27;18.02;;;7.82;;
31390;SDS011;18022;45.492;11.548;2023-09-19T06:55:56;15.10;;;6.47;;
31390;SDS011;18022;45.492;11.548;2023-09-19T06:58:22;15.95;;;6.53;;
31390;SDS011;18022;45.492;11.548;2023-09-19T07:00:48;15.50;;;6.05;;
31390;SDS011;18022;45.492;11.548;2023-09-19T07:03:15;13.77;;;6.60;;
31390;SDS011;18022;45.492;11.548;2023-09-19T07:05:43;16.63;;;6.40;;
31390;SDS011;18022;45.492;11.548;2023-09-19T07:08:09;14.73;;;6.60;;
31390;SDS011;18022;45.492;11.548;2023-09-19T07:10:37;16.60;;;6.55;;
31390;SDS011;18022;45.492;11.548;2023-09-19T07:13:06;15.00;;;6.38;;
31390;SDS011;18022;45.492;11.548;2023-09-19T07:15:35;12.75;;;6.60;;
31390;SDS011;18022;45.492;11.548;2023-09-19T07:18:04;13.32;;;6.95;;
31390;SDS011;18022;45.492;11.548;2023-09-19T07:20:31;14.38;;;5.97;;
31390;SDS011;18022;45.492;11.548;2023-09-19T07:23:00;12.57;;;6.47;;
31390;SDS011;18022;45.492;11.548;2023-09-19T07:25:27;11.02;;;6.35;;
31390;SDS011;18022;45.492;11.548;2023-09-19T07:27:59;15.87;;;6.77;;
31390;SDS011;18022;45.492;11.548;2023-09-19T07:30:25;17.92;;;6.88;;
31390;SDS011;18022;45.492;11.548;2023-09-19T07:32:52;12.65;;;6.28;;
31390;SDS011;18022;45.492;11.548;2023-09-19T07:35:18;14.80;;;8.48;;
31390;SDS011;18022;45.492;11.548;2023-09-19T07:37:45;14.57;;;7.35;;
31390;SDS011;18022;45.492;11.548;2023-09-19T07:40:15;14.38;;;8.18;;
31390;SDS011;18022;45.492;11.548;2023-09-19T07:42:41;15.33;;;8.80;;
31390;SDS011;18022;45.492;11.548;2023-09-19T07:45:07;13.18;;;8.02;;
31390;SDS011;18022;45.492;11.548;2023-09-19T07:47:34;12.73;;;8.30;;
31390;SDS011;18022;45.492;11.548;2023-09-19T07:50:01;14.27;;;9.25;;
31390;SDS011;18022;45.492;11.548;2023-09-19T07:52:28;16.52;;;9.07;;
31390;SDS011;18022;45.492;11.548;2023-09-19T07:54:54;15.23;;;9.10;;
31390;SDS011;18022;45.492;11.548;2023-09-19T07:57:22;15.75;;;9.55;;
31390;SDS011;18022;45.492;11.548;2023-09-19T07:59:47;14.10;;;9.50;;
31390;SDS011;18022;45.492;11.548;2023-09-19T08:02:13;12.55;;;9.57;;
31390;SDS011;18022;45.492;11.548;2023-09-19T08:04:43;13.40;;;9.68;;
31390;SDS011;18022;45.492;11.548;2023-09-19T08:07:11;16.05;;;9.75;;
31390;SDS011;18022;45.492;11.548;2023-09-19T08:09:38;15.25;;;9.90;;
31390;SDS011;18022;45.492;11.548;2023-09-19T08:12:04;15.80;;;10.07;;
31390;SDS011;18022;45.492;11.548;2023-09-19T08:14:32;17.75;;;10.77;;
31390;SDS011;18022;45.492;11.548;2023-09-19T08:16:58;19.98;;;12.18;;
31390;SDS011;18022;45.492;11.548;2023-09-19T08:19:25;18.08;;;10.60;;
31390;SDS011;18022;45.492;11.548;2023-09-19T08:21:57;17.50;;;11.13;;
31390;SDS011;18022;45.492;11.548;2023-09-19T08:24:27;15.32;;;10.20;;
31390;SDS011;18022;45.492;11.548;2023-09-19T08:26:54;19.75;;;9.77;;
31390;SDS011;18022;45.492;11.548;2023-09-19T08:29:20;14.52;;;9.88;;
31390;SDS011;18022;45.492;11.548;2023-09-19T08:31:52;17.05;;;9.85;;
31390;SDS011;18022;45.492;11.548;2023-09-19T08:34:21;14.63;;;9.73;;
31390;SDS011;18022;45.492;11.548;2023-09-19T08:36:53;16.98;;;9.60;;
31390;SDS011;18022;45.492;11.548;2023-09-19T08:39:23;14.57;;;9.27;;
31390;SDS011;18022;45.492;11.548;2023-09-19T08:41:49;22.67;;;10.57;;
31390;SDS011;18022;45.492;11.548;2023-09-19T08:44:15;16.27;;;11.68;;
31390;SDS011;18022;45.492;11.548;2023-09-19T08:46:41;18.77;;;11.13;;
31390;SDS011;18022;45.492;11.548;2023-09-19T08:49:11;20.63;;;10.98;;
31390;SDS011;18022;45.492;11.548;2023-09-19T08:51:49;16.00;;;9.88;;
31390;SDS011;18022;45.492;11.548;2023-09-19T08:54:26;18.80;;;9.80;;
31390;SDS011;18022;45.492;11.548;2023-09-19T08:56:57;13.52;;;9.57;;
31390;SDS011;18022;45.492;11.548;2023-09-19T08:59:28;15.65;;;9.25;;
31390;SDS011;18022;45.492;11.548;2023-09-19T09:01:54;16.48;;;9.93;;
31390;SDS011;18022;45.492;11.548;2023-09-19T09:04:22;13.85;;;8.80;;
31390;SDS011;18022;45.492;11.548;2023-09-19T09:06:49;16.17;;;9.65;;
31390;SDS011;18022;45.492;11.548;2023-09-19T09:09:18;10.63;;;9.38;;
31390;SDS011;18022;45.492;11.548;2023-09-19T09:11:45;14.37;;;9.07;;
31390;SDS011;18022;45.492;11.548;2023-09-19T09:14:13;16.42;;;9.77;;
31390;SDS011;18022;45.492;11.548;2023-09-19T09:16:39;19.17;;;10.75;;
31390;SDS011;18022;45.492;11.548;2023-09-19T09:19:05;19.25;;;10.00;;
31390;SDS011;18022;45.492;11.548;2023-09-19T09:21:30;14.43;;;8.48;;
31390;SDS011;18022;45.492;11.548;2023-09-19T09:24:25;12.93;;;9.45;;
31390;SDS011;18022;45.492;11.548;2023-09-19T09:26:54;14.75;;;9.60;;
31390;SDS011;18022;45.492;11.548;2023-09-19T09:32:29;14.05;;;9.25;;
31390;SDS011;18022;45.492;11.548;2023-09-19T09:34:59;12.85;;;6.78;;
31390;SDS011;18022;45.492;11.548;2023-09-19T09:37:26;15.45;;;8.68;;
31390;SDS011;18022;45.492;11.548;2023-09-19T09:42:39;13.00;;;7.28;;
31390;SDS011;18022;45.492;11.548;2023-09-19T09:45:12;16.65;;;9.00;;
31390;SDS011;18022;45.492;11.548;2023-09-19T09:48:01;13.32;;;8.00;;
31390;SDS011;18022;45.492;11.548;2023-09-19T09:50:39;14.10;;;7.53;;
31390;SDS011;18022;45.492;11.548;2023-09-19T09:53:22;11.00;;;7.28;;
31390;SDS011;18022;45.492;11.548;2023-09-19T09:58:35;16.42;;;6.60;;
31390;SDS011;18022;45.492;11.548;2023-09-19T10:01:02;9.68;;;5.97;;
31390;SDS011;18022;45.492;11.548;2023-09-19T10:03:37;14.57;;;7.38;;
31390;SDS011;18022;45.492;11.548;2023-09-19T10:06:14;14.25;;;6.82;;
31390;SDS011;18022;45.492;11.548;2023-09-19T10:09:08;16.23;;;7.22;;
31390;SDS011;18022;45.492;11.548;2023-09-19T10:11:44;9.85;;;5.93;;
31390;SDS011;18022;45.492;11.548;2023-09-19T10:14:12;13.48;;;6.38;;
31390;SDS011;18022;45.492;11.548;2023-09-19T10:16:45;12.70;;;5.55;;
31390;SDS011;18022;45.492;11.548;2023-09-19T10:22:12;14.68;;;6.63;;
31390;SDS011;18022;45.492;11.548;2023-09-19T10:24:45;11.35;;;4.85;;
31390;SDS011;18022;45.492;11.548;2023-09-19T10:27:12;15.65;;;4.97;;
31390;SDS011;18022;45.492;11.548;2023-09-19T10:29:41;12.65;;;4.85;;
31390;SDS011;18022;45.492;11.548;2023-09-19T10:32:09;8.55;;;4.90;;
31390;SDS011;18022;45.492;11.548;2023-09-19T10:34:43;9.70;;;4.00;;
31390;SDS011;18022;45.492;11.548;2023-09-19T10:37:13;8.07;;;3.45;;
31390;SDS011;18022;45.492;11.548;2023-09-19T10:39:45;9.55;;;3.50;;
31390;SDS011;18022;45.492;11.548;2023-09-19T10:42:14;7.72;;;3.33;;
31390;SDS011;18022;45.492;11.548;2023-09-19T10:44:43;7.53;;;2.97;;
31390;SDS011;18022;45.492;11.548;2023-09-19T10:47:12;10.63;;;3.53;;
31390;SDS011;18022;45.492;11.548;2023-09-19T10:49:43;10.27;;;2.95;;
31390;SDS011;18022;45.492;11.548;2023-09-19T10:52:17;5.28;;;3.05;;
31390;SDS011;18022;45.492;11.548;2023-09-19T10:54:49;12.05;;;2.80;;
31390;SDS011;18022;45.492;11.548;2023-09-19T10:57:20;10.07;;;3.83;;
31390;SDS011;18022;45.492;11.548;2023-09-19T11:00:04;8.55;;;3.72;;
31390;SDS011;18022;45.492;11.548;2023-09-19T11:09:15;9.60;;;5.18;;
31390;SDS011;18022;45.492;11.548;2023-09-19T11:14:15;9.52;;;4.75;;
31390;SDS011;18022;45.492;11.548;2023-09-19T11:30:41;9.25;;;5.15;;
31390;SDS011;18022;45.492;11.548;2023-09-19T11:43:51;14.27;;;4.70;;
31390;SDS011;18022;45.492;11.548;2023-09-19T11:46:24;7.25;;;3.92;;
31390;SDS011;18022;45.492;11.548;2023-09-19T11:48:50;5.03;;;3.65;;
31390;SDS011;18022;45.492;11.548;2023-09-19T11:53:53;6.63;;;2.95;;
31390;SDS011;18022;45.492;11.548;2023-09-19T11:56:21;6.90;;;2.72;;
31390;SDS011;18022;45.492;11.548;2023-09-19T11:58:50;7.80;;;3.47;;
31390;SDS011;18022;45.492;11.548;2023-09-19T12:01:31;7.70;;;3.17;;
31390;SDS011;18022;45.492;11.548;2023-09-19T12:04:00;6.72;;;3.20;;
31390;SDS011;18022;45.492;11.548;2023-09-19T12:08:55;7.25;;;3.63;;
31390;SDS011;18022;45.492;11.548;2023-09-19T12:13:48;13.50;;;4.07;;
31390;SDS011;18022;45.492;11.548;2023-09-19T12:16:19;11.38;;;3.40;;
31390;SDS011;18022;45.492;11.548;2023-09-19T12:18:48;8.75;;;3.65;;
31390;SDS011;18022;45.492;11.548;2023-09-19T12:24:18;7.70;;;3.55;;
31390;SDS011;18022;45.492;11.548;2023-09-19T12:26:45;13.82;;;3.72;;
31390;SDS011;18022;45.492;11.548;2023-09-19T12:29:20;5.90;;;3.03;;
31390;SDS011;18022;45.492;11.548;2023-09-19T12:31:53;8.57;;;3.40;;
31390;SDS011;18022;45.492;11.548;2023-09-19T12:34:31;5.35;;;3.03;;
31390;SDS011;18022;45.492;11.548;2023-09-19T12:37:07;3.72;;;3.00;;
31390;SDS011;18022;45.492;11.548;2023-09-19T12:40:06;4.50;;;3.00;;
31390;SDS011;18022;45.492;11.548;2023-09-19T12:42:43;7.93;;;3.30;;
31390;SDS011;18022;45.492;11.548;2023-09-19T12:45:10;10.93;;;3.75;;
31390;SDS011;18022;45.492;11.548;2023-09-19T12:47:40;7.45;;;3.20;;
31390;SDS011;18022;45.492;11.548;2023-09-19T12:50:26;13.98;;;3.35;;
31390;SDS011;18022;45.492;11.548;2023-09-19T12:52:55;6.57;;;3.42;;
31390;SDS011;18022;45.492;11.548;2023-09-19T12:55:30;8.60;;;3.13;;
31390;SDS011;18022;45.492;11.548;2023-09-19T13:00:38;5.95;;;2.97;;
31390;SDS011;18022;45.492;11.548;2023-09-19T13:03:10;6.32;;;2.75;;
31390;SDS011;18022;45.492;11.548;2023-09-19T13:05:46;6.57;;;3.22;;
31390;SDS011;18022;45.492;11.548;2023-09-19T13:08:29;8.95;;;2.88;;
31390;SDS011;18022;45.492;11.548;2023-09-19T13:11:07;9.90;;;3.28;;
31390;SDS011;18022;45.492;11.548;2023-09-19T13:16:56;6.15;;;3.05;;
31390;SDS011;18022;45.492;11.548;2023-09-19T13:22:43;7.78;;;2.72;;
31390;SDS011;18022;45.492;11.548;2023-09-19T13:25:13;3.38;;;2.50;;
31390;SDS011;18022;45.492;11.548;2023-09-19T13:27:43;4.55;;;2.42;;
31390;SDS011;18022;45.492;11.548;2023-09-19T13:30:10;3.78;;;2.63;;
31390;SDS011;18022;45.492;11.548;2023-09-19T13:32:37;7.85;;;2.80;;
31390;SDS011;18022;45.492;11.548;2023-09-19T13:35:03;6.55;;;2.78;;
31390;SDS011;18022;45.492;11.548;2023-09-19T13:37:30;6.57;;;2.72;;
31390;SDS011;18022;45.492;11.548;2023-09-19T13:39:59;9.95;;;2.65;;
31390;SDS011;18022;45.492;11.548;2023-09-19T13:42:24;5.53;;;2.33;;
31390;SDS011;18022;45.492;11.548;2023-09-19T13:44:54;8.27;;;2.97;;
31390;SDS011;18022;45.492;11.548;2023-09-19T13:47:21;5.40;;;2.93;;
31390;SDS011;18022;45.492;11.548;2023-09-19T13:49:49;4.93;;;2.63;;
31390;SDS011;18022;45.492;11.548;2023-09-19T13:52:21;8.45;;;3.03;;
31390;SDS011;18022;45.492;11.548;2023-09-19T13:54:48;6.20;;;2.92;;
31390;SDS011;18022;45.492;11.548;2023-09-19T13:57:15;7.85;;;3.00;;
31390;SDS011;18022;45.492;11.548;2023-09-19T13:59:42;5.60;;;2.57;;
31390;SDS011;18022;45.492;11.548;2023-09-19T14:02:07;6.30;;;2.80;;
31390;SDS011;18022;45.492;11.548;2023-09-19T14:04:33;8.32;;;2.90;;
31390;SDS011;18022;45.492;11.548;2023-09-19T14:07:00;8.68;;;3.05;;
31390;SDS011;18022;45.492;11.548;2023-09-19T14:09:26;7.47;;;3.07;;
31390;SDS011;18022;45.492;11.548;2023-09-19T14:11:52;3.47;;;2.70;;
31390;SDS011;18022;45.492;11.548;2023-09-19T14:14:18;12.75;;;2.90;;
31390;SDS011;18022;45.492;11.548;2023-09-19T14:16:45;7.72;;;2.80;;
31390;SDS011;18022;45.492;11.548;2023-09-19T14:19:12;8.65;;;2.97;;
31390;SDS011;18022;45.492;11.548;2023-09-19T14:21:39;12.40;;;3.30;;
31390;SDS011;18022;45.492;11.548;2023-09-19T14:24:04;6.03;;;2.47;;
31390;SDS011;18022;45.492;11.548;2023-09-19T14:26:34;10.05;;;2.65;;
31390;SDS011;18022;45.492;11.548;2023-09-19T14:29:01;7.60;;;3.00;;
31390;SDS011;18022;45.492;11.548;2023-09-19T14:31:27;4.57;;;2.42;;
31390;SDS011;18022;45.492;11.548;2023-09-19T14:33:53;7.47;;;2.70;;
31390;SDS011;18022;45.492;11.548;2023-09-19T14:36:21;8.55;;;2.60;;
31390;SDS011;18022;45.492;11.548;2023-09-19T14:38:47;10.95;;;2.72;;
31390;SDS011;18022;45.492;11.548;2023-09-19T14:41:12;6.53;;;2.45;;
31390;SDS011;18022;45.492;11.548;2023-09-19T14:46:12;5.05;;;2.50;;
31390;SDS011;18022;45.492;11.548;2023-09-19T14:51:05;7.38;;;2.40;;
31390;SDS011;18022;45.492;11.548;2023-09-19T14:53:34;5.50;;;2.95;;
31390;SDS011;18022;45.492;11.548;2023-09-19T14:56:01;6.57;;;2.95;;
31390;SDS011;18022;45.492;11.548;2023-09-19T14:58:30;6.88;;;2.38;;
31390;SDS011;18022;45.492;11.548;2023-09-19T15:01:07;6.00;;;2.72;;
31390;SDS011;18022;45.492;11.548;2023-09-19T15:03:35;5.47;;;2.45;;
31390;SDS011;18022;45.492;11.548;2023-09-19T15:06:02;5.75;;;2.55;;
31390;SDS011;18022;45.492;11.548;2023-09-19T15:08:30;5.70;;;3.00;;
31390;SDS011;18022;45.492;11.548;2023-09-19T15:10:56;19.52;;;3.47;;
31390;SDS011;18022;45.492;11.548;2023-09-19T15:13:23;4.68;;;3.00;;
31390;SDS011;18022;45.492;11.548;2023-09-19T15:15:57;7.53;;;3.10;;
31390;SDS011;18022;45.492;11.548;2023-09-19T15:18:27;6.57;;;2.83;;
31390;SDS011;18022;45.492;11.548;2023-09-19T15:20:55;6.68;;;2.92;;
31390;SDS011;18022;45.492;11.548;2023-09-19T15:23:22;4.22;;;2.25;;
31390;SDS011;18022;45.492;11.548;2023-09-19T15:25:50;10.07;;;2.95;;
31390;SDS011;18022;45.492;11.548;2023-09-19T15:28:16;3.88;;;2.83;;
31390;SDS011;18022;45.492;11.548;2023-09-19T15:30:42;9.48;;;2.83;;
31390;SDS011;18022;45.492;11.548;2023-09-19T15:33:09;8.65;;;3.00;;
31390;SDS011;18022;45.492;11.548;2023-09-19T15:35:35;8.35;;;3.00;;
31390;SDS011;18022;45.492;11.548;2023-09-19T15:38:02;4.50;;;2.47;;
31390;SDS011;18022;45.492;11.548;2023-09-19T15:40:28;7.47;;;2.70;;
31390;SDS011;18022;45.492;11.548;2023-09-19T15:42:54;6.38;;;2.70;;
31390;SDS011;18022;45.492;11.548;2023-09-19T15:45:21;10.48;;;2.60;;
31390;SDS011;18022;45.492;11.548;2023-09-19T15:47:47;5.32;;;2.70;;
31390;SDS011;18022;45.492;11.548;2023-09-19T15:50:12;6.72;;;2.65;;
31390;SDS011;18022;45.492;11.548;2023-09-19T15:52:40;6.95;;;2.60;;
31390;SDS011;18022;45.492;11.548;2023-09-19T15:55:06;6.72;;;3.17;;
31390;SDS011;18022;45.492;11.548;2023-09-19T15:57:33;5.55;;;2.70;;
31390;SDS011;18022;45.492;11.548;2023-09-19T15:59:59;8.50;;;2.83;;
31390;SDS011;18022;45.492;11.548;2023-09-19T16:02:26;9.73;;;2.50;;
31390;SDS011;18022;45.492;11.548;2023-09-19T16:04:53;6.68;;;2.70;;
31390;SDS011;18022;45.492;11.548;2023-09-19T16:07:19;6.22;;;2.72;;
31390;SDS011;18022;45.492;11.548;2023-09-19T16:09:45;5.63;;;3.30;;